Time;durP1;ratioP1;P1;durP2;ratioP2;P2;SDS_P1;SDS_P2;PMS_P1;PMS_P2;Temp;Humidity;BMP_temperature;BMP_pressure;BME280_temperature;BME280_humidity;BME280_pressure;Samples;Min_cycle;Max_cycle;Signal;HPM_P1;HPM_P2
2023/08/04 00:02:10;;;;;;;1.67;1.20;;;;;;;16.43;100.00;99473.06;5033676;28;20263;-62
2023/08/04 00:04:35;;;;;;;1.13;1.00;;;;;;;16.28;100.00;99481.25;5033289;28;20548;-63
2023/08/04 00:07:01;;;;;;;1.10;1.00;;;;;;;16.31;100.00;99480.19;5033053;28;20316;-62
2023/08/04 00:09:26;;;;;;;2.60;1.13;;;;;;;16.30;100.00;99486.34;5032820;28;20178;-62
2023/08/04 00:11:51;;;;;;;1.53;1.00;;;;;;;16.14;100.00;99485.06;5022588;28;20720;-61
2023/08/04 00:14:16;;;;;;;1.60;1.00;;;;;;;16.04;100.00;99481.66;5033939;28;20276;-61
2023/08/04 00:16:41;;;;;;;1.60;0.90;;;;;;;16.08;100.00;99480.41;5030670;28;20237;-62
2023/08/04 00:19:07;;;;;;;1.87;1.03;;;;;;;16.10;100.00;99480.28;5030084;28;20729;-61
2023/08/04 00:21:32;;;;;;;1.80;1.27;;;;;;;16.13;100.00;99488.63;5015161;28;20294;-62
2023/08/04 00:23:58;;;;;;;1.00;1.00;;;;;;;16.19;100.00;99491.66;5034438;28;20178;-63
2023/08/04 00:26:23;;;;;;;1.30;1.10;;;;;;;16.20;100.00;99493.25;5031341;28;20186;-62
2023/08/04 00:28:49;;;;;;;1.63;1.00;;;;;;;16.22;100.00;99484.38;5027995;28;20193;-62
2023/08/04 00:31:14;;;;;;;2.57;1.00;;;;;;;16.25;100.00;99485.91;5028589;28;20320;-60
2023/08/04 00:33:39;;;;;;;2.30;1.40;;;;;;;16.19;100.00;99494.25;5028625;28;20190;-61
2023/08/04 00:36:05;;;;;;;1.90;1.40;;;;;;;16.22;100.00;99489.56;5032429;28;20198;-61
2023/08/04 00:38:30;;;;;;;3.40;1.57;;;;;;;16.32;100.00;99494.78;5013073;28;20184;-61
2023/08/04 00:40:55;;;;;;;1.33;1.00;;;;;;;16.35;100.00;99491.94;5020835;28;20235;-61
2023/08/04 00:43:20;;;;;;;2.60;0.93;;;;;;;16.32;100.00;99488.78;5039999;28;20197;-61
2023/08/04 00:45:46;;;;;;;2.00;1.27;;;;;;;16.37;100.00;99486.59;5015686;28;20233;-61
2023/08/04 00:48:11;;;;;;;1.43;1.17;;;;;;;16.34;100.00;99479.09;5033869;28;20224;-61
2023/08/04 00:50:37;;;;;;;1.47;1.07;;;;;;;16.33;100.00;99480.03;5027797;28;20233;-60
2023/08/04 00:53:02;;;;;;;1.13;1.07;;;;;;;16.33;100.00;99478.25;5038306;28;20174;-60
2023/08/04 00:55:28;;;;;;;3.63;1.30;;;;;;;16.28;100.00;99485.63;5032274;28;20284;-60
2023/08/04 00:57:55;;;;;;;3.63;1.30;;;;;;;16.32;100.00;99491.38;5034037;28;20174;-60
2023/08/04 01:00:20;;;;;;;2.43;1.13;;;;;;;16.18;100.00;99490.00;5025645;28;20630;-61
2023/08/04 01:02:45;;;;;;;1.43;0.97;;;;;;;16.23;100.00;99485.22;5046547;28;20177;-61
2023/08/04 01:05:11;;;;;;;1.10;1.00;;;;;;;16.25;100.00;99485.91;5033160;28;20205;-61
2023/08/04 01:07:52;;;;;;;2.30;1.13;;;;;;;16.20;100.00;99490.66;5020260;28;20170;-61
2023/08/04 01:10:40;;;;;;;2.20;0.80;;;;;;;16.08;100.00;99497.78;5021607;28;20263;-60
2023/08/04 01:13:07;;;;;;;2.13;0.93;;;;;;;16.20;100.00;99498.44;5041210;28;20170;-60
2023/08/04 01:15:33;;;;;;;2.50;1.17;;;;;;;16.26;100.00;99503.09;5032984;28;20229;-61
2023/08/04 01:17:59;;;;;;;2.00;1.20;;;;;;;16.25;100.00;99502.28;5031541;28;20170;-61
2023/08/04 01:20:26;;;;;;;2.70;1.47;;;;;;;16.23;100.00;99499.00;5026089;28;20585;-60
2023/08/04 01:22:52;;;;;;;1.60;1.10;;;;;;;16.28;100.00;99496.81;5044339;28;20185;-60
2023/08/04 01:25:23;;;;;;;2.83;0.97;;;;;;;16.35;100.00;99496.28;5033125;28;20174;-60
2023/08/04 01:27:52;;;;;;;2.93;1.33;;;;;;;16.37;100.00;99494.38;5032893;28;20186;-60
2023/08/04 01:30:23;;;;;;;1.67;1.03;;;;;;;16.38;100.00;99496.03;5025327;28;20563;-59
2023/08/04 01:32:49;;;;;;;1.30;1.20;;;;;;;16.48;100.00;99496.03;5043299;28;20182;-60
2023/08/04 01:35:15;;;;;;;2.60;1.03;;;;;;;16.47;100.00;99495.19;5031468;28;20182;-60
2023/08/04 01:37:40;;;;;;;1.20;1.10;;;;;;;16.44;100.00;99496.28;5031722;28;20673;-60
2023/08/04 01:40:07;;;;;;;3.50;1.07;;;;;;;16.40;100.00;99494.13;4999022;28;20187;-60
2023/08/04 01:42:32;;;;;;;2.20;1.00;;;;;;;16.43;100.00;99499.88;5024180;28;20179;-60
2023/08/04 01:44:57;;;;;;;1.83;1.00;;;;;;;16.30;100.00;99504.50;5026444;28;20182;-60
2023/08/04 01:47:22;;;;;;;1.40;0.93;;;;;;;16.18;100.00;99493.41;5032846;28;20198;-61
2023/08/04 01:49:47;;;;;;;5.03;1.00;;;;;;;16.21;100.00;99498.34;5033148;28;20190;-60
2023/08/04 01:52:13;;;;;;;1.63;1.23;;;;;;;16.24;100.00;99494.66;5037343;28;20557;-60
2023/08/04 01:54:38;;;;;;;4.27;1.50;;;;;;;16.22;100.00;99497.34;5031300;28;20264;-61
2023/08/04 01:57:04;;;;;;;1.00;0.80;;;;;;;16.28;100.00;99499.41;5032361;28;20236;-61
2023/08/04 01:59:29;;;;;;;3.87;1.30;;;;;;;16.32;100.00;99502.56;5020825;28;20527;-61
2023/08/04 02:01:54;;;;;;;2.03;1.10;;;;;;;16.34;100.00;99503.25;5036710;28;20343;-60
2023/08/04 02:04:19;;;;;;;2.80;1.27;;;;;;;16.33;100.00;99501.63;5033790;28;20194;-60
2023/08/04 02:06:44;;;;;;;2.73;1.30;;;;;;;16.35;100.00;99504.91;5032611;28;20640;-61
2023/08/04 02:09:11;;;;;;;1.67;1.10;;;;;;;16.27;100.00;99508.19;5033122;28;20228;-60
2023/08/04 02:11:36;;;;;;;2.17;1.30;;;;;;;16.27;100.00;99508.19;5033294;28;20233;-60
2023/08/04 02:14:02;;;;;;;4.67;1.07;;;;;;;16.29;100.00;99506.25;5030703;28;20268;-59
2023/08/04 02:16:27;;;;;;;4.10;1.30;;;;;;;16.30;100.00;99509.69;5032569;28;20260;-59
2023/08/04 02:19:00;;;;;;;9.10;1.57;;;;;;;16.25;100.00;99502.28;5032789;28;20274;-60
2023/08/04 02:21:26;;;;;;;2.50;1.73;;;;;;;16.36;100.00;99500.53;5031874;28;20233;-60
2023/08/04 02:23:51;;;;;;;1.80;1.20;;;;;;;16.32;100.00;99506.94;5036924;28;20197;-60
2023/08/04 02:26:16;;;;;;;1.53;1.27;;;;;;;16.37;100.00;99504.75;5031718;28;20193;-59
2023/08/04 02:28:41;;;;;;;2.53;1.40;;;;;;;16.37;100.00;99502.16;5032321;28;20687;-59
2023/08/04 02:31:07;;;;;;;1.60;1.33;;;;;;;16.29;100.00;99508.03;5029527;28;20229;-59
2023/08/04 02:33:32;;;;;;;1.53;1.13;;;;;;;16.17;100.00;99515.13;5030890;28;20206;-60
2023/08/04 02:36:02;;;;;;;4.93;1.83;;;;;;;16.09;100.00;99518.38;5030127;28;20183;-59
2023/08/04 02:38:27;;;;;;;1.60;1.50;;;;;;;16.09;100.00;99512.38;5031009;28;20178;-60
2023/08/04 02:40:52;;;;;;;2.23;1.30;;;;;;;16.03;100.00;99516.31;5027087;28;20276;-60
2023/08/04 02:43:18;;;;;;;1.63;1.37;;;;;;;16.13;100.00;99516.34;5034330;28;20192;-60
2023/08/04 02:45:48;;;;;;;2.27;1.50;;;;;;;16.13;100.00;99527.53;5030992;28;20227;-60
2023/08/04 02:48:13;;;;;;;4.03;1.37;;;;;;;16.12;100.00;99522.47;5030646;28;20223;-60
2023/08/04 02:50:38;;;;;;;5.83;1.83;;;;;;;16.12;100.00;99527.66;5021609;28;20699;-60
2023/08/04 02:53:03;;;;;;;3.83;1.60;;;;;;;16.04;100.00;99525.75;5041845;28;20279;-60
2023/08/04 02:55:29;;;;;;;3.37;1.53;;;;;;;16.06;100.00;99525.59;5031199;28;20186;-61
2023/08/04 02:57:55;;;;;;;2.37;1.67;;;;;;;16.05;100.00;99521.38;5030239;28;20178;-60
2023/08/04 03:00:20;;;;;;;2.17;1.60;;;;;;;16.04;100.00;99530.94;5011883;28;20202;-60
2023/08/04 03:02:45;;;;;;;3.50;1.50;;;;;;;15.99;100.00;99535.72;5030296;28;20175;-60
2023/08/04 03:05:10;;;;;;;3.70;1.80;;;;;;;15.92;100.00;99529.41;5029832;28;20178;-58
2023/08/04 03:07:36;;;;;;;6.37;1.83;;;;;;;15.91;100.00;99532.94;5031828;28;20550;-60
2023/08/04 03:10:01;;;;;;;2.87;1.87;;;;;;;15.93;100.00;99528.47;5031092;28;20185;-59
2023/08/04 03:12:26;;;;;;;3.83;2.00;;;;;;;15.92;100.00;99532.00;5003867;28;20269;-59
2023/08/04 03:14:52;;;;;;;4.90;1.97;;;;;;;15.87;100.00;99532.38;5030135;28;20613;-59
2023/08/04 03:17:17;;;;;;;2.60;1.87;;;;;;;15.87;100.00;99536.75;5036298;28;20274;-59
2023/08/04 03:19:42;;;;;;;2.30;2.03;;;;;;;15.91;100.00;99535.53;5029932;28;20186;-60
2023/08/04 03:22:07;;;;;;;6.57;2.30;;;;;;;15.92;100.00;99540.59;5036505;28;20700;-59
2023/08/04 03:24:33;;;;;;;2.80;2.10;;;;;;;15.77;100.00;99539.28;5030830;28;20251;-59
2023/08/04 03:26:58;;;;;;;3.60;2.30;;;;;;;15.80;100.00;99552.81;5030486;28;20512;-59
2023/08/04 03:29:23;;;;;;;5.03;2.00;;;;;;;15.67;100.00;99543.63;5031069;28;20186;-60
2023/08/04 03:31:48;;;;;;;6.17;2.30;;;;;;;15.59;100.00;99546.84;5013812;28;20237;-61
2023/08/04 03:34:13;;;;;;;4.27;2.40;;;;;;;15.60;100.00;99549.34;5032817;28;20489;-60
2023/08/04 03:36:39;;;;;;;5.83;2.67;;;;;;;15.47;100.00;99551.31;5031196;28;20181;-60
2023/08/04 03:39:04;;;;;;;6.47;3.40;;;;;;;15.52;100.00;99556.09;5029966;28;20587;-60
2023/08/04 03:41:29;;;;;;;5.37;2.80;;;;;;;15.25;100.00;99557.47;5029889;28;20223;-59
2023/08/04 03:43:55;;;;;;;8.17;2.87;;;;;;;15.15;100.00;99554.81;5030495;28;20641;-60
2023/08/04 03:46:20;;;;;;;7.23;3.10;;;;;;;15.14;100.00;99559.19;5030891;28;20182;-60
2023/08/04 03:48:45;;;;;;;4.40;2.90;;;;;;;15.06;100.00;99558.13;5030964;28;20198;-60
2023/08/04 03:51:10;;;;;;;4.90;3.20;;;;;;;15.08;100.00;99554.50;5023542;28;20696;-59
2023/08/04 03:53:36;;;;;;;5.33;2.63;;;;;;;15.07;100.00;99559.78;5029253;28;20182;-59
2023/08/04 03:56:01;;;;;;;5.07;3.07;;;;;;;15.14;100.00;99555.75;5030164;28;20178;-59
2023/08/04 03:58:26;;;;;;;4.90;2.70;;;;;;;15.11;100.00;99567.19;5013268;28;20182;-60
2023/08/04 04:00:52;;;;;;;4.83;3.10;;;;;;;15.11;100.00;99566.38;5027002;28;20213;-60
2023/08/04 04:03:17;;;;;;;4.87;3.60;;;;;;;15.13;100.00;99574.81;5040035;28;20186;-59
2023/08/04 04:05:42;;;;;;;4.33;3.43;;;;;;;15.19;100.00;99573.50;5030399;28;20182;-59
2023/08/04 04:08:07;;;;;;;5.77;3.40;;;;;;;15.11;100.00;99577.53;5029499;28;20601;-59
2023/08/04 04:10:33;;;;;;;6.80;3.70;;;;;;;15.18;100.00;99577.84;5024637;28;20363;-59
2023/08/04 04:12:58;;;;;;;6.93;4.13;;;;;;;15.19;100.00;99574.31;5041520;28;20525;-59
2023/08/04 04:15:23;;;;;;;9.70;3.77;;;;;;;15.19;100.00;99578.69;5030154;28;20230;-60
2023/08/04 04:17:48;;;;;;;7.97;4.07;;;;;;;15.16;100.00;99585.75;5030745;28;20209;-60
2023/08/04 04:20:14;;;;;;;9.87;4.30;;;;;;;15.19;100.00;99582.09;5022186;28;20182;-59
2023/08/04 04:22:39;;;;;;;6.33;4.27;;;;;;;15.15;100.00;99583.28;5044334;28;20178;-60
2023/08/04 04:25:04;;;;;;;5.83;4.33;;;;;;;15.10;100.00;99586.25;5030296;28;20185;-59
2023/08/04 04:27:30;;;;;;;12.07;5.10;;;;;;;15.12;100.00;99592.16;5031679;28;20178;-59
2023/08/04 04:29:55;;;;;;;8.37;4.27;;;;;;;15.16;100.00;99592.72;5034206;28;20174;-59
2023/08/04 04:32:20;;;;;;;8.17;4.90;;;;;;;15.15;100.00;99591.06;5031130;28;20248;-59
2023/08/04 04:34:46;;;;;;;9.20;4.80;;;;;;;15.16;100.00;99592.72;5033782;28;20178;-59
2023/08/04 04:37:11;;;;;;;6.40;5.07;;;;;;;15.25;100.00;99599.72;5033096;28;20177;-59
2023/08/04 04:39:36;;;;;;;7.70;5.10;;;;;;;15.27;100.00;99600.44;5034097;28;20649;-59
2023/08/04 04:42:03;;;;;;;6.17;5.00;;;;;;;14.97;100.00;99602.00;5032845;28;20236;-59
2023/08/04 04:44:28;;;;;;;7.50;5.13;;;;;;;15.12;100.00;99604.25;5048804;28;20178;-59
2023/08/04 04:46:54;;;;;;;8.53;4.57;;;;;;;15.20;100.00;99606.25;5034519;28;20243;-59
2023/08/04 04:49:19;;;;;;;6.37;4.97;;;;;;;15.30;100.00;99604.53;5033885;28;20189;-59
2023/08/04 04:51:45;;;;;;;7.20;4.77;;;;;;;15.26;100.00;99613.50;5036540;28;20645;-58
2023/08/04 04:54:10;;;;;;;10.20;4.87;;;;;;;15.32;100.00;99603.47;5035148;28;20182;-59
2023/08/04 04:56:35;;;;;;;9.37;5.63;;;;;;;15.37;100.00;99615.19;5034046;28;20535;-59
2023/08/04 04:59:00;;;;;;;9.77;5.70;;;;;;;15.38;100.00;99616.84;5033815;28;20188;-60
2023/08/04 05:01:26;;;;;;;7.77;5.67;;;;;;;15.41;100.00;99612.22;5025416;28;20261;-60
2023/08/04 05:03:51;;;;;;;11.23;5.57;;;;;;;15.42;100.00;99611.28;5037651;28;20174;-60
2023/08/04 05:06:16;;;;;;;10.80;6.20;;;;;;;15.39;100.00;99613.31;5033612;28;20178;-59
2023/08/04 05:08:41;;;;;;;6.40;4.87;;;;;;;15.36;100.00;99624.75;5019977;28;20182;-59
2023/08/04 05:11:07;;;;;;;7.03;5.47;;;;;;;15.38;100.00;99619.44;5031677;28;20225;-60
2023/08/04 05:13:32;;;;;;;7.47;5.17;;;;;;;15.37;100.00;99623.81;5039788;28;20197;-59
2023/08/04 05:15:57;;;;;;;9.77;5.40;;;;;;;15.28;100.00;99625.41;5032847;28;20258;-59
2023/08/04 05:18:22;;;;;;;8.37;5.40;;;;;;;15.31;100.00;99632.91;5033762;28;20182;-59
2023/08/04 05:20:48;;;;;;;7.50;4.90;;;;;;;15.35;100.00;99628.28;5029164;28;20220;-58
2023/08/04 05:23:14;;;;;;;6.93;4.93;;;;;;;15.34;100.00;99629.22;5041997;28;20185;-59
2023/08/04 05:25:40;;;;;;;6.07;5.40;;;;;;;15.35;100.00;99625.69;5032890;28;20233;-59
2023/08/04 05:28:22;;;;;;;6.90;4.60;;;;;;;15.36;100.00;99632.53;5033176;28;20214;-59
2023/08/04 05:30:48;;;;;;;6.93;4.67;;;;;;;15.32;100.00;99631.16;5028910;28;20689;-59
2023/08/04 05:33:13;;;;;;;11.83;4.90;;;;;;;15.39;100.00;99636.63;5031282;28;20273;-60
2023/08/04 05:35:40;;;;;;;8.47;4.23;;;;;;;15.40;100.00;99641.69;5032745;28;20611;-60
2023/08/04 05:38:05;;;;;;;9.10;4.80;;;;;;;15.49;100.00;99646.13;5032605;28;20174;-59
2023/08/04 05:40:32;;;;;;;7.27;4.33;;;;;;;15.44;100.00;99645.69;5026580;28;20236;-59
2023/08/04 05:42:58;;;;;;;6.03;4.17;;;;;;;15.44;100.00;99642.25;5024927;28;20637;-59
2023/08/04 05:45:24;;;;;;;6.90;4.70;;;;;;;15.57;100.00;99645.50;5031356;28;20248;-59
2023/08/04 05:47:49;;;;;;;6.63;4.43;;;;;;;15.65;100.00;99644.84;5033017;28;20202;-59
2023/08/04 05:50:14;;;;;;;5.50;4.23;;;;;;;15.65;100.00;99650.03;5024637;28;20217;-60
2023/08/04 05:52:39;;;;;;;8.70;4.70;;;;;;;15.63;100.00;99651.94;5045681;28;20175;-59
2023/08/04 05:55:05;;;;;;;7.30;4.80;;;;;;;15.81;100.00;99658.19;5032343;28;20585;-59
2023/08/04 05:57:30;;;;;;;5.10;4.57;;;;;;;15.87;100.00;99653.47;5033288;28;20185;-59
2023/08/04 05:59:55;;;;;;;7.60;4.73;;;;;;;15.90;100.00;99650.59;5032720;28;20174;-59
2023/08/04 06:02:21;;;;;;;6.43;5.00;;;;;;;15.73;100.00;99652.81;5037148;28;20214;-59
2023/08/04 06:04:46;;;;;;;6.27;5.17;;;;;;;15.94;100.00;99652.00;5031085;28;20691;-59
2023/08/04 06:07:11;;;;;;;6.40;5.17;;;;;;;15.97;100.00;99659.53;5032523;28;20193;-60
2023/08/04 06:09:36;;;;;;;11.13;5.53;;;;;;;16.12;100.00;99667.78;5033002;28;20182;-58
2023/08/04 06:12:02;;;;;;;5.80;5.20;;;;;;;16.15;100.00;99664.94;5010926;28;20588;-61
2023/08/04 06:14:27;;;;;;;6.67;4.67;;;;;;;16.21;100.00;99671.34;5032054;28;20255;-59
2023/08/04 06:16:52;;;;;;;7.63;5.27;;;;;;;16.00;100.00;99671.41;5032668;28;20628;-59
2023/08/04 06:19:18;;;;;;;7.03;5.07;;;;;;;16.07;100.00;99673.34;5031210;28;20196;-60
2023/08/04 06:21:43;;;;;;;8.00;5.53;;;;;;;16.14;100.00;99669.28;5034176;28;20225;-59
2023/08/04 06:24:08;;;;;;;8.13;5.37;;;;;;;16.14;100.00;99676.25;5049473;28;20629;-58
2023/08/04 06:26:34;;;;;;;5.60;5.10;;;;;;;15.93;100.00;99673.72;5030825;28;20231;-59
2023/08/04 06:28:59;;;;;;;7.73;5.63;;;;;;;15.86;100.00;99677.75;5032116;28;21671;-59
2023/08/04 06:31:24;;;;;;;6.33;5.30;;;;;;;15.91;100.00;99683.38;5025523;28;20234;-58
2023/08/04 06:33:49;;;;;;;7.07;5.97;;;;;;;15.84;100.00;99687.44;5035673;28;20253;-59
2023/08/04 06:36:15;;;;;;;7.10;6.20;;;;;;;16.00;100.00;99689.56;5031752;28;20186;-58
2023/08/04 06:38:40;;;;;;;7.60;6.27;;;;;;;15.88;100.00;99683.66;5031991;28;20221;-57
2023/08/04 06:41:05;;;;;;;7.77;5.90;;;;;;;16.02;100.00;99693.66;5027583;28;20237;-58
2023/08/04 06:43:30;;;;;;;7.17;6.47;;;;;;;15.93;100.00;99695.25;5034928;28;20178;-57
2023/08/04 06:45:56;;;;;;;10.00;6.07;;;;;;;16.07;100.00;99694.09;5028393;28;20220;-58
2023/08/04 06:48:24;;;;;;;7.67;6.47;;;;;;;16.15;100.00;99698.66;5027946;28;20202;-58
2023/08/04 06:50:49;;;;;;;9.00;6.27;;;;;;;16.09;100.00;99700.00;5025175;28;20241;-58
2023/08/04 06:53:14;;;;;;;7.57;6.87;;;;;;;16.08;100.00;99702.72;5037410;28;20174;-58
2023/08/04 06:55:39;;;;;;;9.50;7.67;;;;;;;16.03;100.00;99704.88;5030827;28;20574;-58
2023/08/04 06:58:05;;;;;;;7.13;6.43;;;;;;;16.25;100.00;99701.31;5031855;28;20186;-58
2023/08/04 07:00:30;;;;;;;8.67;7.13;;;;;;;16.26;100.00;99708.94;5012877;28;20224;-58
2023/08/04 07:02:55;;;;;;;7.73;7.00;;;;;;;16.23;100.00;99704.00;5042410;28;20182;-59
2023/08/04 07:05:20;;;;;;;9.00;7.13;;;;;;;16.46;100.00;99707.25;5031253;28;20201;-59
2023/08/04 07:07:48;;;;;;;8.07;7.27;;;;;;;16.70;100.00;99700.88;5031442;28;20588;-58
2023/08/04 07:10:13;;;;;;;8.50;7.70;;;;;;;16.77;100.00;99707.19;5020897;28;20185;-58
2023/08/04 07:12:39;;;;;;;8.43;7.33;;;;;;;16.82;100.00;99705.97;5029962;28;20505;-58
2023/08/04 07:15:04;;;;;;;10.07;8.13;;;;;;;16.94;100.00;99704.94;5020972;28;20234;-58
2023/08/04 07:17:30;;;;;;;14.37;9.87;;;;;;;17.07;100.00;99707.28;5046231;28;20189;-57
2023/08/04 07:19:55;;;;;;;10.67;9.57;;;;;;;17.04;100.00;99710.13;5031081;28;20607;-58
2023/08/04 07:22:21;;;;;;;11.17;8.77;;;;;;;17.14;100.00;99704.94;5036485;28;20221;-57
2023/08/04 07:24:48;;;;;;;9.90;8.67;;;;;;;17.12;100.00;99706.84;5030475;28;20186;-57
2023/08/04 07:27:13;;;;;;;10.20;7.90;;;;;;;17.26;100.00;99709.88;5031549;28;20173;-57
2023/08/04 07:29:39;;;;;;;12.97;9.07;;;;;;;17.51;100.00;99710.28;5031040;28;20189;-58
2023/08/04 07:32:04;;;;;;;8.80;7.97;;;;;;;17.71;100.00;99718.06;5016319;28;20599;-58
2023/08/04 07:34:31;;;;;;;8.90;8.00;;;;;;;17.75;100.00;99711.63;5030605;28;20180;-58
2023/08/04 07:36:56;;;;;;;9.77;8.83;;;;;;;17.78;100.00;99710.53;5031367;28;20186;-58
2023/08/04 07:39:21;;;;;;;10.27;8.60;;;;;;;17.83;100.00;99713.53;5030772;28;20182;-59
2023/08/04 07:41:46;;;;;;;9.30;7.97;;;;;;;17.85;100.00;99722.84;5002982;28;20306;-59
2023/08/04 07:44:12;;;;;;;10.27;9.27;;;;;;;18.26;100.00;99722.63;5030620;28;20230;-59
2023/08/04 07:46:37;;;;;;;8.70;7.90;;;;;;;18.51;100.00;99715.13;5030170;28;20219;-58
2023/08/04 07:49:02;;;;;;;10.23;8.90;;;;;;;18.51;100.00;99717.72;5030832;28;20293;-58
2023/08/04 07:51:28;;;;;;;9.20;8.40;;;;;;;18.56;100.00;99720.72;5021019;28;20599;-59
2023/08/04 07:53:53;;;;;;;9.70;8.73;;;;;;;18.68;100.00;99724.75;5029469;28;20935;-59
2023/08/04 07:56:18;;;;;;;9.13;7.80;;;;;;;18.70;100.00;99717.63;5030818;28;20189;-58
2023/08/04 07:58:43;;;;;;;10.67;8.20;;;;;;;18.47;100.00;99721.56;5031061;28;20193;-58
2023/08/04 08:01:09;;;;;;;12.00;8.27;;;;;;;18.38;100.00;99728.44;5029974;28;20243;-59
2023/08/04 08:03:36;;;;;;;11.73;8.90;;;;;;;18.39;100.00;99724.88;5041481;28;20697;-58
2023/08/04 08:06:02;;;;;;;10.10;9.10;;;;;;;18.52;100.00;99727.19;5033132;28;20281;-57
2023/08/04 08:08:28;;;;;;;10.80;8.00;;;;;;;18.53;100.00;99729.63;5033383;28;20178;-59
2023/08/04 08:10:54;;;;;;;10.83;9.03;;;;;;;18.51;100.00;99733.34;5031387;28;20229;-58
2023/08/04 08:13:20;;;;;;;9.40;8.40;;;;;;;18.35;100.00;99739.16;5036080;28;20193;-59
2023/08/04 08:15:45;;;;;;;9.07;8.17;;;;;;;18.25;100.00;99738.38;5034083;28;20256;-59
2023/08/04 08:18:10;;;;;;;14.20;8.70;;;;;;;18.24;100.00;99737.56;5034825;28;20182;-59
2023/08/04 08:20:40;;;;;;;14.50;8.40;;;;;;;18.35;100.00;99741.78;5029042;28;20240;-59
2023/08/04 08:23:05;;;;;;;9.80;8.40;;;;;;;18.42;100.00;99739.41;5029841;28;20276;-58
2023/08/04 08:25:31;;;;;;;10.70;8.00;;;;;;;18.36;100.00;99744.22;5024532;28;20625;-59
2023/08/04 08:27:56;;;;;;;9.63;8.63;;;;;;;18.64;100.00;99746.88;5018210;28;20187;-59
2023/08/04 08:30:21;;;;;;;10.37;8.23;;;;;;;18.98;100.00;99748.88;5026590;28;20238;-59
2023/08/04 08:32:46;;;;;;;9.90;8.17;;;;;;;18.84;100.00;99742.38;5046287;28;20188;-58
2023/08/04 08:35:12;;;;;;;9.57;7.60;;;;;;;19.05;100.00;99748.28;5033820;28;20182;-57
2023/08/04 08:37:37;;;;;;;10.27;8.00;;;;;;;19.32;100.00;99750.03;5033932;28;20303;-60
2023/08/04 08:40:03;;;;;;;9.63;7.93;;;;;;;19.12;100.00;99754.56;5030783;28;20217;-60
2023/08/04 08:42:28;;;;;;;8.57;7.30;;;;;;;18.97;100.00;99751.66;5031562;28;20633;-59
2023/08/04 08:44:54;;;;;;;11.47;8.07;;;;;;;18.76;100.00;99759.69;5033718;28;20190;-59
2023/08/04 08:47:20;;;;;;;10.33;8.03;;;;;;;18.83;100.00;99761.56;5033054;28;20212;-59
2023/08/04 08:49:50;;;;;;;12.37;9.03;;;;;;;18.94;100.00;99762.34;5033756;28;20265;-60
2023/08/04 08:52:18;;;;;;;11.77;8.10;;;;;;;18.71;100.00;99763.53;5021487;28;20359;-60
2023/08/04 08:54:45;;;;;;;12.93;8.27;;;;;;;18.73;100.00;99762.56;5032425;28;20181;-60
2023/08/04 08:57:11;;;;;;;13.17;9.27;;;;;;;18.65;100.00;99763.31;5032778;28;20275;-59
2023/08/04 08:59:36;;;;;;;14.53;8.67;;;;;;;18.45;100.00;99765.97;5034264;28;20641;-59
2023/08/04 09:02:02;;;;;;;15.40;10.07;;;;;;;18.10;100.00;99771.84;5035472;28;20229;-58
2023/08/04 09:04:32;;;;;;;11.00;9.33;;;;;;;18.46;100.00;99766.81;5031890;28;20260;-59
2023/08/04 09:06:58;;;;;;;12.23;9.60;;;;;;;18.51;100.00;99783.63;5033604;28;20517;-58
2023/08/04 09:09:23;;;;;;;16.83;10.10;;;;;;;18.88;100.00;99774.16;5033838;28;20182;-58
2023/08/04 09:11:48;;;;;;;10.13;9.20;;;;;;;18.78;100.00;99779.41;5027732;28;20262;-59
2023/08/04 09:14:15;;;;;;;15.83;9.60;;;;;;;18.61;100.00;99780.19;5023161;28;20178;-60
2023/08/04 09:16:42;;;;;;;11.07;8.20;;;;;;;18.63;100.00;99779.09;5021736;28;20710;-62
2023/08/04 09:19:08;;;;;;;10.23;8.93;;;;;;;18.74;100.00;99777.25;5032885;28;20166;-61
2023/08/04 09:21:35;;;;;;;11.30;9.03;;;;;;;18.80;100.00;99780.06;5011180;28;20373;-62
2023/08/04 09:24:02;;;;;;;10.00;8.80;;;;;;;18.69;100.00;99780.28;5030257;28;20174;-65
2023/08/04 09:26:45;;;;;;;13.47;8.63;;;;;;;18.72;100.00;99787.81;5030555;28;20196;-61
2023/08/04 09:29:12;;;;;;;9.23;8.33;;;;;;;18.88;100.00;99777.56;5031932;28;20264;-63
2023/08/04 09:31:40;;;;;;;9.33;8.10;;;;;;;19.25;100.00;99781.09;5023770;28;20252;-63
2023/08/04 09:34:07;;;;;;;9.33;7.47;;;;;;;19.43;100.00;99780.28;5030822;28;20217;-63
2023/08/04 09:36:42;;;;;;;11.00;8.00;;;;;;;19.71;100.00;99777.56;5025544;28;20196;-63
2023/08/04 09:39:09;;;;;;;8.07;7.23;;;;;;;19.54;100.00;99776.63;5031820;28;20537;-61
2023/08/04 09:41:39;;;;;;;7.73;6.73;;;;;;;19.44;100.00;99774.91;5027607;28;20312;-61
2023/08/04 09:44:06;;;;;;;8.30;6.60;;;;;;;19.83;100.00;99779.00;5029498;28;20174;-61
2023/08/04 09:46:31;;;;;;;10.47;6.80;;;;;;;20.00;100.00;99785.16;5031461;28;20236;-61
2023/08/04 09:49:00;;;;;;;7.03;6.33;;;;;;;20.07;100.00;99783.59;5031065;28;20279;-62
2023/08/04 09:51:26;;;;;;;9.53;6.50;;;;;;;20.53;100.00;99790.34;5025350;28;20291;-63
2023/08/04 09:53:54;;;;;;;10.37;6.80;;;;;;;20.70;100.00;99784.25;5029494;28;20192;-63
2023/08/04 09:56:21;;;;;;;8.13;6.17;;;;;;;20.51;100.00;99787.91;5024425;28;20646;-63
2023/08/04 09:58:48;;;;;;;8.73;6.37;;;;;;;20.93;100.00;99787.13;5030232;28;20193;-62
2023/08/04 10:01:15;;;;;;;8.10;6.20;;;;;;;20.52;100.00;99784.31;5023434;28;20716;-62
2023/08/04 10:03:42;;;;;;;8.23;5.07;;;;;;;20.17;100.00;99783.50;5022009;28;20179;-62
2023/08/04 10:06:09;;;;;;;9.07;5.60;;;;;;;20.02;100.00;99790.22;5022689;28;20269;-61
2023/08/04 10:08:39;;;;;;;9.80;5.67;;;;;;;20.17;100.00;99791.31;5027057;28;20183;-63
2023/08/04 10:11:05;;;;;;;6.00;4.67;;;;;;;19.91;100.00;99792.13;5024387;28;20265;-64
2023/08/04 10:13:34;;;;;;;9.53;5.63;;;;;;;20.34;100.00;99794.84;5027737;28;20189;-62
2023/08/04 10:16:03;;;;;;;8.13;5.70;;;;;;;20.90;100.00;99790.06;5030512;28;20264;-61
2023/08/04 10:18:49;;;;;;;7.53;4.90;;;;;;;20.98;100.00;99791.06;5024959;28;20269;-59
2023/08/04 10:21:17;;;;;;;6.60;5.17;;;;;;;21.98;100.00;99793.66;5017363;28;20221;-60
2023/08/04 10:23:42;;;;;;;6.97;4.33;;;;;;;22.02;100.00;99788.91;5025373;28;20752;-60
2023/08/04 10:26:11;;;;;;;7.07;5.43;;;;;;;22.15;100.00;99804.09;5029977;28;20186;-62
2023/08/04 10:29:05;;;;;;;7.37;4.83;;;;;;;21.94;100.00;99797.56;5030886;28;20265;-61
2023/08/04 10:31:44;;;;;;;7.87;4.63;;;;;;;22.33;100.00;99801.28;5015063;28;20594;-63
2023/08/04 10:34:15;;;;;;;7.40;4.27;;;;;;;22.25;100.00;99797.69;5010115;28;20182;-61
2023/08/04 10:37:12;;;;;;;8.13;4.57;;;;;;;22.28;100.00;99796.53;5030392;28;20225;-62
2023/08/04 10:39:39;;;;;;;7.13;4.70;;;;;;;22.78;100.00;99797.19;5029225;28;20194;-62
2023/08/04 10:42:24;;;;;;;5.00;4.30;;;;;;;22.25;100.00;99800.31;5032968;28;20312;-63
2023/08/04 10:45:06;;;;;;;6.23;4.23;;;;;;;22.08;100.00;99803.94;5028607;28;20261;-63
2023/08/04 10:47:51;;;;;;;6.70;3.70;;;;;;;21.75;100.00;99803.97;5028150;28;20306;-61
2023/08/04 10:50:16;;;;;;;4.57;3.80;;;;;;;21.96;100.00;99802.66;5017193;28;20179;-63
2023/08/04 10:52:42;;;;;;;5.93;3.93;;;;;;;21.68;100.00;99803.81;5044768;28;20233;-60
2023/08/04 10:55:11;;;;;;;6.37;3.40;;;;;;;21.79;100.00;99807.06;5024972;28;20179;-60
2023/08/04 10:57:38;;;;;;;5.07;3.70;;;;;;;22.00;100.00;99799.50;5030319;28;20652;-69
2023/08/04 11:00:06;;;;;;;7.27;3.67;;;;;;;22.21;100.00;99798.97;5017260;28;20538;-61
2023/08/04 11:02:32;;;;;;;7.93;4.00;;;;;;;22.55;100.00;99802.38;5025983;28;20229;-62
2023/08/04 11:04:58;;;;;;;6.30;3.10;;;;;;;22.12;99.81;99801.81;5020817;28;20207;-63
2023/08/04 11:07:24;;;;;;;8.10;3.93;;;;;;;22.36;100.00;99798.31;5029727;28;20209;-65
2023/08/04 11:09:52;;;;;;;5.37;3.37;;;;;;;22.81;100.00;99801.28;5009545;28;20186;-63
2023/08/04 11:12:18;;;;;;;6.60;3.30;;;;;;;22.90;100.00;99805.50;5023912;28;20232;-65
2023/08/04 11:14:44;;;;;;;5.23;4.10;;;;;;;23.59;98.56;99803.97;5028783;28;20628;-64
2023/08/04 11:17:20;;;;;;;5.23;3.37;;;;;;;23.29;93.61;99799.41;5033380;28;20743;-63
2023/08/04 11:19:48;;;;;;;5.03;3.67;;;;;;;23.11;95.01;99801.47;5032398;28;20600;-64
2023/08/04 11:22:16;;;;;;;6.53;3.30;;;;;;;22.87;95.93;99813.72;5013811;28;20221;-65